createdAt,value
2023-02-05T00:00:37.087Z,70.95
2023-02-05T00:03:29.517Z,70.76
2023-02-05T00:06:02.052Z,70.89
2023-02-05T00:08:35.447Z,70.73
2023-02-05T00:11:09.782Z,70.79
2023-02-05T00:13:45.005Z,70.76
2023-02-05T00:16:19.918Z,70.92
2023-02-05T00:18:52.729Z,70.82
2023-02-05T00:21:25.967Z,70.96
2023-02-05T00:23:58.372Z,70.96
2023-02-05T00:26:30.967Z,70.83
2023-02-05T00:29:03.478Z,70.79
2023-02-05T00:31:36.175Z,70.66
2023-02-05T00:34:08.828Z,70.73
2023-02-05T00:36:41.405Z,70.72
2023-02-05T00:39:14.831Z,70.93
2023-02-05T00:41:47.354Z,70.82
2023-02-05T00:44:19.804Z,70.66
2023-02-05T00:46:52.283Z,70.80
2023-02-05T00:49:24.701Z,70.90
2023-02-05T00:51:57.172Z,71.02
2023-02-05T00:54:29.681Z,70.72
2023-02-05T00:57:02.105Z,70.79
2023-02-05T00:59:34.671Z,70.79
2023-02-05T01:02:07.286Z,70.59
2023-02-05T01:04:40.121Z,70.66
2023-02-05T01:07:12.621Z,70.72
2023-02-05T01:09:45.970Z,70.94
2023-02-05T01:12:18.497Z,70.85
2023-02-05T01:14:51.179Z,70.62
2023-02-05T01:17:24.150Z,70.81
2023-02-05T01:19:57.030Z,70.71
2023-02-05T01:22:29.807Z,70.67
2023-02-05T01:25:03.035Z,70.86
2023-02-05T01:27:36.689Z,70.87
2023-02-05T01:30:11.914Z,70.92
2023-02-05T01:32:42.839Z,70.81
2023-02-05T01:35:15.343Z,70.97
2023-02-05T01:37:48.018Z,71.01
2023-02-05T01:40:20.722Z,70.75
2023-02-05T01:42:53.276Z,70.95
2023-02-05T01:46:08.185Z,70.83
2023-02-05T01:48:45.313Z,70.97
2023-02-05T01:51:18.490Z,71.04
2023-02-05T01:53:51.712Z,71.05
2023-02-05T01:56:27.537Z,70.98
2023-02-05T01:59:04.728Z,71.01
2023-02-05T02:01:38.808Z,71.13
2023-02-05T02:04:12.749Z,70.87
2023-02-05T02:06:45.398Z,70.93
2023-02-05T02:09:17.872Z,71.18
2023-02-05T02:11:50.579Z,71.09
2023-02-05T02:14:24.873Z,71.12
2023-02-05T02:16:58.476Z,71.04
2023-02-05T02:19:40.064Z,71.17
2023-02-05T02:22:44.361Z,71.06
2023-02-05T02:25:46.048Z,71.32
2023-02-05T02:28:26.381Z,71.29
2023-02-05T02:31:04.099Z,71.19
2023-02-05T02:33:43.955Z,71.14
2023-02-05T02:36:22.854Z,71.15
2023-02-05T02:39:01.545Z,71.08
2023-02-05T02:41:41.810Z,70.82
2023-02-05T02:44:18.487Z,71.17
2023-02-05T02:46:55.098Z,71.32
2023-02-05T02:49:34.218Z,71.19
2023-02-05T02:52:10.352Z,71.16
2023-02-05T02:54:47.955Z,71.18
2023-02-05T02:57:24.275Z,71.15
2023-02-05T03:00:01.566Z,71.14
2023-02-05T03:02:37.736Z,70.99
2023-02-05T03:05:15.158Z,71.17
2023-02-05T03:07:50.990Z,71.10
2023-02-05T03:10:33.500Z,71.17
2023-02-05T03:13:06.051Z,71.31
2023-02-05T03:15:39.551Z,71.35
2023-02-05T03:18:12.157Z,71.40
2023-02-05T03:20:49.906Z,71.42
2023-02-05T03:23:22.531Z,71.53
2023-02-05T03:25:55.521Z,71.38
2023-02-05T03:28:33.754Z,71.53
2023-02-05T03:31:11.980Z,71.33
2023-02-05T03:33:54.843Z,71.36
2023-02-05T03:36:40.748Z,71.39
2023-02-05T03:39:26.720Z,71.17
2023-02-05T03:42:11.720Z,71.26
2023-02-05T03:45:16.313Z,71.29
2023-02-05T03:48:02.462Z,71.41
2023-02-05T03:50:42.442Z,71.41
2023-02-05T03:53:23.219Z,71.34
2023-02-05T03:56:04.759Z,71.56
2023-02-05T03:58:43.159Z,71.47
2023-02-05T04:01:16.246Z,71.41
2023-02-05T04:03:49.895Z,71.38
2023-02-05T04:06:22.513Z,71.55
2023-02-05T04:08:55.919Z,71.48
2023-02-05T04:11:29.496Z,71.48
2023-02-05T04:14:02.278Z,71.50
2023-02-05T04:16:34.778Z,71.45
2023-02-05T04:19:08.282Z,71.44
2023-02-05T04:21:40.911Z,71.45
2023-02-05T04:24:13.459Z,71.51
2023-02-05T04:26:46.575Z,71.50
2023-02-05T04:29:19.282Z,71.33
2023-02-05T04:31:52.707Z,71.44
2023-02-05T04:34:25.489Z,71.49
2023-02-05T04:36:58.254Z,71.54
2023-02-05T04:39:31.827Z,71.51
2023-02-05T04:42:04.362Z,71.44
2023-02-05T04:44:36.800Z,71.49
2023-02-05T04:47:09.430Z,71.49
2023-02-05T04:49:42.059Z,71.72
2023-02-05T04:52:14.467Z,71.43
2023-02-05T04:54:46.936Z,71.33
2023-02-05T04:57:19.336Z,71.45
2023-02-05T04:59:51.860Z,71.48
2023-02-05T05:02:24.675Z,71.53
2023-02-05T05:04:57.195Z,71.46
2023-02-05T05:07:32.537Z,71.64
2023-02-05T05:10:07.337Z,71.58
2023-02-05T05:12:40.282Z,71.74
2023-02-05T05:15:13.235Z,71.46
2023-02-05T05:17:45.716Z,71.55
2023-02-05T05:20:18.677Z,71.65
2023-02-05T05:22:51.208Z,71.50
2023-02-05T05:25:23.986Z,71.43
2023-02-05T05:27:56.535Z,71.61
2023-02-05T05:30:29.093Z,71.49
2023-02-05T05:33:01.596Z,71.64
2023-02-05T05:35:34.981Z,71.45
2023-02-05T05:38:08.299Z,71.64
2023-02-05T05:40:58.408Z,71.45
2023-02-05T05:43:49.625Z,71.50
2023-02-05T05:46:24.633Z,71.47
2023-02-05T05:48:58.613Z,71.53
2023-02-05T05:51:32.781Z,71.46
2023-02-05T05:54:05.408Z,71.43
2023-02-05T05:56:38.415Z,71.41
2023-02-05T05:59:12.502Z,71.48
2023-02-05T06:01:44.927Z,71.37
2023-02-05T06:04:17.408Z,71.49
2023-02-05T06:06:49.811Z,71.62
2023-02-05T06:09:24.116Z,71.42
2023-02-05T06:11:56.528Z,71.43
2023-02-05T06:14:29.047Z,71.37
2023-02-05T06:17:01.559Z,71.37
2023-02-05T06:19:34.340Z,71.42
2023-02-05T06:22:06.857Z,71.58
2023-02-05T06:24:39.302Z,71.62
2023-02-05T06:27:11.852Z,71.56
2023-02-05T06:29:44.330Z,71.54
2023-02-05T06:32:16.882Z,71.50
2023-02-05T06:34:49.306Z,71.52
2023-02-05T06:37:24.959Z,71.61
2023-02-05T06:39:57.482Z,71.75
2023-02-05T06:42:29.883Z,71.48
2023-02-05T06:45:02.432Z,71.48
2023-02-05T06:47:34.782Z,71.48
2023-02-05T06:50:08.220Z,71.61
2023-02-05T06:52:40.756Z,71.46
2023-02-05T06:55:13.465Z,71.65
2023-02-05T06:57:46.046Z,71.66
2023-02-05T07:00:19.541Z,71.56
2023-02-05T07:02:53.308Z,71.67
2023-02-05T07:05:25.952Z,71.64
2023-02-05T07:07:58.456Z,71.63
2023-02-05T07:10:30.968Z,71.62
2023-02-05T07:13:05.739Z,71.61
2023-02-05T07:15:39.660Z,71.63
2023-02-05T07:18:12.125Z,71.72
2023-02-05T07:20:44.574Z,71.56
2023-02-05T07:23:16.978Z,71.64
2023-02-05T07:25:49.523Z,71.71
2023-02-05T07:28:22.026Z,71.64
2023-02-05T07:30:55.596Z,71.43
2023-02-05T07:33:28.010Z,71.62
2023-02-05T07:36:03.162Z,71.52
2023-02-05T07:38:34.748Z,71.56
2023-02-05T07:41:08.391Z,71.53
2023-02-05T07:43:41.458Z,71.75
2023-02-05T07:46:15.687Z,71.77
2023-02-05T07:48:48.082Z,71.60
2023-02-05T07:51:24.616Z,71.67
2023-02-05T07:53:57.037Z,71.58
2023-02-05T07:56:29.410Z,71.69
2023-02-05T07:59:01.900Z,71.70
2023-02-05T08:01:34.360Z,71.69
2023-02-05T08:04:06.999Z,71.59
2023-02-05T08:06:39.566Z,71.75
2023-02-05T08:09:14.453Z,71.70
2023-02-05T08:11:46.952Z,71.79
2023-02-05T08:14:19.349Z,71.91
2023-02-05T08:16:51.775Z,71.79
2023-02-05T08:19:24.207Z,71.80
2023-02-05T08:21:56.646Z,71.77
2023-02-05T08:24:29.208Z,71.81
2023-02-05T08:27:01.777Z,71.86
2023-02-05T08:29:34.154Z,71.65
2023-02-05T08:32:08.661Z,71.60
2023-02-05T08:34:41.099Z,71.74
2023-02-05T08:37:13.859Z,71.68
2023-02-05T08:39:46.537Z,71.60
2023-02-05T08:42:19.120Z,71.59
2023-02-05T08:44:51.794Z,71.60
2023-02-05T08:47:25.124Z,71.64
2023-02-05T08:49:57.898Z,71.64
2023-02-05T08:52:30.424Z,71.46
2023-02-05T08:55:02.978Z,71.40
2023-02-05T08:57:35.456Z,71.41
2023-02-05T09:00:09.566Z,71.38
2023-02-05T09:02:44.140Z,71.38
2023-02-05T09:05:16.627Z,71.40
2023-02-05T09:07:49.064Z,71.57
2023-02-05T09:10:21.628Z,71.43
2023-02-05T09:12:54.118Z,71.40
2023-02-05T09:15:26.726Z,71.56
2023-02-05T09:17:59.176Z,71.51
2023-02-05T09:20:31.625Z,71.50
2023-02-05T09:23:04.309Z,71.37
2023-02-05T09:25:37.783Z,71.56
2023-02-05T09:28:11.733Z,71.35
2023-02-05T09:30:46.872Z,71.40
2023-02-05T09:33:17.767Z,71.39
2023-02-05T09:35:50.199Z,71.45
2023-02-05T09:38:22.665Z,71.57
2023-02-05T09:40:59.927Z,71.58
2023-02-05T09:43:45.308Z,71.46
2023-02-05T09:46:25.812Z,71.57
2023-02-05T09:49:03.216Z,71.53
2023-02-05T09:51:38.819Z,71.58
2023-02-05T09:54:17.839Z,71.54
2023-02-05T09:56:52.629Z,71.46
2023-02-05T09:59:27.577Z,71.55
2023-02-05T10:02:02.970Z,71.51
2023-02-05T10:04:36.850Z,71.52
2023-02-05T10:07:31.551Z,71.63
2023-02-05T10:10:22.749Z,71.58
2023-02-05T10:13:23.705Z,71.33
2023-02-05T10:16:31.150Z,71.37
2023-02-05T10:19:48.480Z,71.54
2023-02-05T10:22:27.939Z,71.59
2023-02-05T10:25:16.929Z,71.53
2023-02-05T10:27:59.372Z,71.42
2023-02-05T10:30:38.383Z,71.58
2023-02-05T10:33:20.220Z,71.43
2023-02-05T10:36:01.525Z,71.50
2023-02-05T10:38:37.942Z,71.10
2023-02-05T10:41:27.670Z,71.06
2023-02-05T10:44:06.109Z,71.46
2023-02-05T10:46:41.306Z,71.80
2023-02-05T10:49:16.874Z,71.48
2023-02-05T10:51:50.124Z,71.60
2023-02-05T10:54:28.033Z,71.14
2023-02-05T10:57:01.954Z,71.42
2023-02-05T10:59:37.586Z,71.48
2023-02-05T11:02:12.409Z,71.44
2023-02-05T11:04:48.608Z,71.51
2023-02-05T11:07:26.217Z,71.39
2023-02-05T11:10:14.024Z,71.53
2023-02-05T11:12:49.729Z,71.10
2023-02-05T11:15:25.460Z,71.42
2023-02-05T11:18:02.719Z,71.19
2023-02-05T11:20:38.402Z,71.26
2023-02-05T11:23:19.314Z,71.32
2023-02-05T11:25:56.822Z,71.19
2023-02-05T11:28:33.030Z,71.11
2023-02-05T11:31:25.523Z,71.28
2023-02-05T11:34:16.272Z,71.28
2023-02-05T11:36:54.922Z,71.40
2023-02-05T11:39:36.548Z,71.08
2023-02-05T11:42:19.353Z,71.22
2023-02-05T11:44:54.793Z,71.15
2023-02-05T11:47:32.472Z,70.95
2023-02-05T11:50:06.567Z,70.76
2023-02-05T11:52:40.527Z,71.01
2023-02-05T11:55:29.144Z,70.93
2023-02-05T11:58:07.412Z,71.05
2023-02-05T12:00:51.135Z,70.97
2023-02-05T12:03:24.467Z,70.99
2023-02-05T12:06:04.594Z,70.87
2023-02-05T12:08:44.268Z,70.69
2023-02-05T12:11:31.230Z,70.82
2023-02-05T12:14:12.535Z,71.03
2023-02-05T12:16:52.657Z,70.82
2023-02-05T12:19:33.294Z,70.52
2023-02-05T12:22:17.875Z,71.03
2023-02-05T12:24:59.767Z,70.72
2023-02-05T12:27:49.595Z,70.90
2023-02-05T12:30:39.800Z,70.82
2023-02-05T12:33:28.429Z,71.04
2023-02-05T12:36:11.940Z,70.48
2023-02-05T12:38:58.681Z,70.60
2023-02-05T12:41:42.600Z,70.34
2023-02-05T12:44:27.600Z,70.63
2023-02-05T12:47:14.366Z,70.66
2023-02-05T12:50:12.206Z,70.61
2023-02-05T12:53:12.610Z,70.22
2023-02-05T12:56:00.288Z,70.99
2023-02-05T12:58:41.007Z,70.56
2023-02-05T13:01:21.165Z,70.68
2023-02-05T13:04:00.864Z,70.73
2023-02-05T13:06:38.048Z,70.54
2023-02-05T13:09:17.716Z,70.42
2023-02-05T13:11:57.334Z,70.38
2023-02-05T13:14:35.672Z,70.15
2023-02-05T13:17:13.346Z,70.20
2023-02-05T13:19:50.968Z,70.00
2023-02-05T13:22:45.171Z,70.48
2023-02-05T13:25:44.160Z,70.09
2023-02-05T13:28:43.866Z,70.05
2023-02-05T13:31:25.733Z,69.86
2023-02-05T13:34:04.693Z,69.71
2023-02-05T13:37:13.052Z,69.98
2023-02-05T13:40:05.373Z,69.78
2023-02-05T13:43:02.425Z,69.64
2023-02-05T13:46:06.234Z,69.74
2023-02-05T13:49:22.554Z,69.68
2023-02-05T13:52:18.797Z,69.57
2023-02-05T13:55:16.902Z,69.39
2023-02-05T13:58:12.311Z,69.58
2023-02-05T14:00:50.867Z,69.35
2023-02-05T14:03:35.303Z,69.23
2023-02-05T14:06:23.032Z,69.49
2023-02-05T14:09:05.652Z,69.20
2023-02-05T14:11:53.982Z,69.22
2023-02-05T14:14:30.140Z,69.13
2023-02-05T14:17:04.378Z,69.32
2023-02-05T14:20:01.276Z,69.02
2023-02-05T14:22:40.210Z,69.21
2023-02-05T14:26:02.170Z,69.09
2023-02-05T14:28:52.769Z,68.70
2023-02-05T14:31:48.644Z,69.19
2023-02-05T14:34:51.376Z,68.87
2023-02-05T14:37:31.304Z,68.85
2023-02-05T14:40:22.215Z,68.95
2023-02-05T14:43:09.690Z,68.79
2023-02-05T14:45:49.235Z,68.78
2023-02-05T14:48:26.870Z,68.77
2023-02-05T14:51:18.502Z,68.94
2023-02-05T14:54:00.930Z,68.54
2023-02-05T14:56:40.211Z,68.76
2023-02-05T14:59:24.752Z,68.42
2023-02-05T15:01:57.557Z,68.48
2023-02-05T15:04:41.938Z,68.45
2023-02-05T15:07:21.113Z,68.55
2023-02-05T15:09:58.957Z,68.35
2023-02-05T15:12:49.320Z,68.35
2023-02-05T15:15:33.703Z,68.52
2023-02-05T15:18:16.327Z,68.48
2023-02-05T15:20:52.852Z,68.37
2023-02-05T15:23:35.156Z,68.43
2023-02-05T15:26:16.030Z,68.22
2023-02-05T15:28:57.363Z,68.17
2023-02-05T15:31:35.846Z,68.33
2023-02-05T15:34:30.661Z,68.31
2023-02-05T15:37:06.842Z,68.26
2023-02-05T15:39:48.768Z,68.40
2023-02-05T15:42:25.336Z,68.13
2023-02-05T15:44:57.765Z,68.11
2023-02-05T15:47:30.561Z,68.02
2023-02-05T15:50:05.463Z,68.15
2023-02-05T15:52:38.697Z,68.05
2023-02-05T15:55:17.778Z,68.09
2023-02-05T15:57:50.699Z,68.03
2023-02-05T16:00:27.346Z,67.96
2023-02-05T16:03:02.591Z,68.10
2023-02-05T16:05:36.593Z,67.93
2023-02-05T16:08:28.202Z,68.00
2023-02-05T16:11:05.471Z,67.93
2023-02-05T16:13:37.927Z,67.88
2023-02-05T16:16:18.418Z,67.90
2023-02-05T16:18:57.443Z,67.70
2023-02-05T16:21:34.043Z,67.80
2023-02-05T16:24:10.723Z,67.79
2023-02-05T16:26:47.806Z,67.75
2023-02-05T16:29:31.510Z,67.80
2023-02-05T16:32:15.654Z,67.83
2023-02-05T16:34:48.616Z,67.76
2023-02-05T16:37:23.884Z,67.79
2023-02-05T16:39:56.062Z,67.74
2023-02-05T16:42:38.224Z,67.85
2023-02-05T16:45:31.658Z,67.66
2023-02-05T16:48:26.361Z,67.77
2023-02-05T16:50:59.989Z,67.71
2023-02-05T16:53:35.103Z,67.62
2023-02-05T16:56:12.652Z,67.69
2023-02-05T16:58:50.703Z,67.69
2023-02-05T17:01:29.066Z,67.63
2023-02-05T17:04:01.748Z,67.74
2023-02-05T17:06:38.244Z,67.68
2023-02-05T17:09:30.561Z,67.73
2023-02-05T17:12:33.888Z,67.73
2023-02-05T17:15:27.560Z,67.56
2023-02-05T17:18:06.489Z,67.57
2023-02-05T17:20:40.701Z,67.78
2023-02-05T17:23:14.727Z,67.75
2023-02-05T17:25:55.221Z,67.75
2023-02-05T17:28:29.984Z,67.66
2023-02-05T17:31:02.495Z,67.66
2023-02-05T17:33:35.104Z,67.55
2023-02-05T17:36:09.957Z,67.54
2023-02-05T17:38:42.317Z,67.64
2023-02-05T17:41:36.579Z,67.70
2023-02-05T17:44:11.405Z,67.58
2023-02-05T17:46:44.394Z,67.65
2023-02-05T17:49:16.953Z,67.53
2023-02-05T17:51:49.453Z,67.68
2023-02-05T17:54:25.562Z,67.77
2023-02-05T17:57:03.039Z,67.53
2023-02-05T17:59:35.663Z,67.58
2023-02-05T18:02:08.397Z,67.55
2023-02-05T18:04:41.312Z,67.52
2023-02-05T18:07:21.668Z,67.57
2023-02-05T18:09:54.112Z,67.66
2023-02-05T18:12:27.047Z,67.68
2023-02-05T18:14:59.601Z,67.77
2023-02-05T18:17:32.046Z,67.72
2023-02-05T18:20:05.092Z,67.72
2023-02-05T18:22:37.960Z,67.76
2023-02-05T18:25:11.272Z,67.64
2023-02-05T18:27:43.808Z,67.71
2023-02-05T18:30:17.285Z,67.84
2023-02-05T18:32:50.034Z,67.71
2023-02-05T18:35:22.586Z,67.85
2023-02-05T18:37:55.136Z,67.90
2023-02-05T18:40:27.582Z,68.01
2023-02-05T18:43:00.545Z,68.04
2023-02-05T18:45:32.962Z,67.97
2023-02-05T18:48:05.416Z,68.02
2023-02-05T18:50:37.939Z,68.03
2023-02-05T18:53:10.466Z,68.07
2023-02-05T18:55:42.913Z,67.99
2023-02-05T18:58:15.436Z,67.88
2023-02-05T19:00:47.815Z,67.74
2023-02-05T19:03:20.327Z,67.78
2023-02-05T19:05:53.303Z,67.72
2023-02-05T19:08:26.059Z,68.01
2023-02-05T19:10:58.893Z,67.83
2023-02-05T19:13:31.498Z,67.81
2023-02-05T19:16:11.593Z,67.89
2023-02-05T19:18:45.709Z,67.84
2023-02-05T19:21:20.465Z,67.77
2023-02-05T19:23:55.893Z,67.86
2023-02-05T19:26:30.105Z,67.87
2023-02-05T19:29:05.187Z,67.89
2023-02-05T19:31:39.977Z,67.83
2023-02-05T19:34:12.979Z,67.92
2023-02-05T19:36:45.846Z,67.86
2023-02-05T19:39:18.544Z,67.89
2023-02-05T19:41:51.989Z,68.05
2023-02-05T19:44:26.574Z,67.94
2023-02-05T19:46:58.900Z,67.94
2023-02-05T19:49:31.481Z,67.62
2023-02-05T19:52:04.257Z,67.90
2023-02-05T19:54:36.858Z,67.78
2023-02-05T19:57:09.538Z,67.95
2023-02-05T19:59:41.932Z,67.91
2023-02-05T20:02:19.358Z,67.90
2023-02-05T20:04:52.393Z,68.06
2023-02-05T20:07:24.818Z,67.89
2023-02-05T20:09:57.375Z,67.86
2023-02-05T20:12:30.019Z,68.04
2023-02-05T20:15:02.809Z,67.88
2023-02-05T20:17:35.386Z,68.03
2023-02-05T20:20:22.216Z,67.95
2023-02-05T20:23:01.031Z,67.86
2023-02-05T20:25:33.698Z,67.94
2023-02-05T20:28:06.782Z,67.94
2023-02-05T20:31:00.238Z,67.93
2023-02-05T20:33:32.963Z,67.97
2023-02-05T20:36:11.290Z,68.09
2023-02-05T20:38:43.953Z,67.94
2023-02-05T20:41:18.548Z,68.06
2023-02-05T20:43:51.814Z,67.92
2023-02-05T20:46:24.958Z,68.15
2023-02-05T20:48:57.412Z,68.04
2023-02-05T20:51:30.510Z,68.04
2023-02-05T20:54:03.233Z,68.02
2023-02-05T20:56:36.073Z,68.10
2023-02-05T20:59:10.976Z,68.20
2023-02-05T21:01:43.488Z,68.23
2023-02-05T21:04:16.184Z,68.19
2023-02-05T21:06:49.580Z,67.95
2023-02-05T21:09:22.748Z,68.13
2023-02-05T21:11:55.739Z,67.96
2023-02-05T21:14:28.497Z,68.06
2023-02-05T21:17:02.757Z,68.11
2023-02-05T21:19:35.413Z,68.01
2023-02-05T21:22:07.968Z,68.06
2023-02-05T21:24:41.421Z,68.12
2023-02-05T21:27:13.849Z,68.21
2023-02-05T21:29:46.431Z,68.14
2023-02-05T21:32:19.541Z,68.06
2023-02-05T21:34:52.365Z,68.04
2023-02-05T21:37:25.055Z,68.07
2023-02-05T21:40:08.368Z,68.18
2023-02-05T21:42:41.823Z,68.18
2023-02-05T21:45:14.554Z,68.17
2023-02-05T21:47:47.029Z,68.14
2023-02-05T21:50:20.054Z,68.21
2023-02-05T21:52:55.087Z,68.17
2023-02-05T21:55:27.580Z,68.24
2023-02-05T21:58:00.162Z,68.14
2023-02-05T22:00:32.828Z,68.13
2023-02-05T22:03:05.653Z,67.94
2023-02-05T22:05:38.432Z,68.12
2023-02-05T22:08:12.040Z,68.00
2023-02-05T22:10:44.613Z,68.22
2023-02-05T22:13:17.397Z,68.27
2023-02-05T22:15:50.102Z,68.08
2023-02-05T22:18:22.678Z,68.12
2023-02-05T22:20:55.132Z,68.22
2023-02-05T22:23:27.637Z,68.20
2023-02-05T22:26:00.440Z,68.22
2023-02-05T22:28:33.349Z,68.28
2023-02-05T22:31:07.736Z,68.32
2023-02-05T22:33:41.806Z,68.29
2023-02-05T22:36:16.872Z,68.29
2023-02-05T22:38:48.014Z,68.27
2023-02-05T22:41:23.226Z,68.31
2023-02-05T22:43:54.676Z,68.20
2023-02-05T22:46:29.405Z,68.54
2023-02-05T22:49:03.441Z,68.35
2023-02-05T22:51:38.016Z,68.46
2023-02-05T22:54:13.610Z,68.46
2023-02-05T22:56:46.578Z,68.58
2023-02-05T22:59:19.209Z,68.34
2023-02-05T23:01:51.884Z,68.39
2023-02-05T23:04:24.897Z,68.43
2023-02-05T23:06:57.546Z,68.53
2023-02-05T23:09:30.060Z,68.51
2023-02-05T23:12:03.356Z,68.54
2023-02-05T23:14:36.333Z,68.47
2023-02-05T23:17:08.928Z,68.48
2023-02-05T23:19:41.299Z,68.53
2023-02-05T23:22:13.836Z,68.49
2023-02-05T23:24:47.231Z,68.53
2023-02-05T23:27:19.811Z,68.68
2023-02-05T23:29:52.473Z,68.61
2023-02-05T23:32:25.097Z,68.73
2023-02-05T23:34:57.825Z,68.76
2023-02-05T23:37:30.685Z,68.82
2023-02-05T23:40:03.163Z,68.65
2023-02-05T23:42:35.794Z,68.79
2023-02-05T23:45:10.558Z,68.72
2023-02-05T23:47:43.125Z,68.79
2023-02-05T23:50:15.477Z,68.87
2023-02-05T23:52:48.026Z,68.72
2023-02-05T23:55:21.066Z,68.83
2023-02-05T23:57:53.772Z,68.89
